Time;durP1;ratioP1;P1;durP2;ratioP2;P2;SDS_P1;SDS_P2;PMS_P1;PMS_P2;Temp;Humidity;BMP_temperature;BMP_pressure;BME280_temperature;BME280_humidity;BME280_pressure;Samples;Min_cycle;Max_cycle;Signal;HPM_P1;HPM_P2
2022/04/19 00:01:44;;;;;;;2.60;1.92;;;;;;;;;;6217757;23;20145;-65
2022/04/19 00:04:11;;;;;;;3.75;2.20;;;;;;;;;;6217224;23;20169;-65
2022/04/19 00:06:37;;;;;;;2.72;2.28;;;;;;;;;;6217794;23;20216;-64
2022/04/19 00:09:04;;;;;;;2.78;2.10;;;;;;;;;;6217628;23;20159;-65
2022/04/19 00:11:30;;;;;;;2.95;2.15;;;;;;;;;;6217320;23;20251;-65
2022/04/19 00:13:56;;;;;;;2.83;1.95;;;;;;;;;;6217304;23;20468;-65
2022/04/19 00:16:22;;;;;;;3.15;2.10;;;;;;;;;;6217394;23;20191;-65
2022/04/19 00:18:48;;;;;;;2.67;2.08;;;;;;;;;;6217190;23;20156;-65
2022/04/19 00:21:14;;;;;;;4.10;2.38;;;;;;;;;;6217271;23;20148;-65
2022/04/19 00:23:40;;;;;;;3.25;2.33;;;;;;;;;;6217455;23;20145;-65
2022/04/19 00:26:06;;;;;;;3.58;1.83;;;;;;;;;;6217342;23;20163;-65
2022/04/19 00:28:32;;;;;;;3.85;2.25;;;;;;;;;;6217605;23;20144;-65
2022/04/19 00:30:58;;;;;;;4.53;2.10;;;;;;;;;;6217537;23;20215;-65
2022/04/19 00:33:24;;;;;;;4.30;1.90;;;;;;;;;;6217462;23;20140;-65
2022/04/19 00:35:49;;;;;;;2.63;1.98;;;;;;;;;;6217480;23;20256;-64
2022/04/19 00:38:15;;;;;;;2.70;2.15;;;;;;;;;;6217200;23;20222;-65
2022/04/19 00:40:42;;;;;;;3.03;2.08;;;;;;;;;;6217511;23;20216;-65
2022/04/19 00:43:09;;;;;;;4.10;2.10;;;;;;;;;;6217122;23;20201;-65
2022/04/19 00:45:34;;;;;;;2.90;2.05;;;;;;;;;;6217068;23;20176;-65
2022/04/19 00:48:01;;;;;;;2.78;2.53;;;;;;;;;;6217152;23;20601;-66
2022/04/19 00:50:28;;;;;;;4.18;2.35;;;;;;;;;;6217009;23;20435;-65
2022/04/19 00:52:54;;;;;;;4.43;2.75;;;;;;;;;;6217059;23;20144;-65
2022/04/19 00:55:20;;;;;;;4.70;2.47;;;;;;;;;;6216615;23;20252;-65
2022/04/19 00:57:46;;;;;;;5.20;2.30;;;;;;;;;;6217345;23;20168;-65
2022/04/19 01:00:13;;;;;;;3.45;2.40;;;;;;;;;;6217185;23;20159;-65
2022/04/19 01:02:39;;;;;;;3.70;2.70;;;;;;;;;;6216835;23;20232;-65
2022/04/19 01:05:05;;;;;;;3.30;2.40;;;;;;;;;;6216864;23;20171;-65
2022/04/19 01:07:32;;;;;;;3.70;2.30;;;;;;;;;;6216975;23;20166;-65
2022/04/19 01:09:57;;;;;;;2.60;1.85;;;;;;;;;;6216970;23;20149;-65
2022/04/19 01:15:09;;;;;;;3.47;2.15;;;;;;;;;;6217648;23;20434;-64
2022/04/19 01:17:39;;;;;;;3.95;2.25;;;;;;;;;;6218224;23;20149;-64
2022/04/19 01:20:05;;;;;;;2.30;2.10;;;;;;;;;;6218147;23;20232;-64
2022/04/19 01:22:43;;;;;;;3.20;2.15;;;;;;;;;;6218577;23;20140;-64
2022/04/19 01:25:13;;;;;;;4.53;2.30;;;;;;;;;;6218131;23;20493;-65
2022/04/19 01:27:39;;;;;;;2.50;2.20;;;;;;;;;;6218340;23;20203;-65
2022/04/19 01:30:06;;;;;;;4.85;2.78;;;;;;;;;;6218200;23;20430;-65
2022/04/19 01:32:32;;;;;;;3.90;2.33;;;;;;;;;;6217690;23;20145;-65
2022/04/19 01:35:08;;;;;;;4.53;2.45;;;;;;;;;;6216991;23;20145;-65
2022/04/19 01:37:35;;;;;;;3.53;2.20;;;;;;;;;;6217348;23;20160;-64
2022/04/19 01:40:16;;;;;;;2.85;2.20;;;;;;;;;;6217171;23;20517;-64
2022/04/19 01:42:45;;;;;;;2.53;2.22;;;;;;;;;;6217349;23;20557;-64
2022/04/19 01:45:11;;;;;;;5.60;2.60;;;;;;;;;;6217014;23;20196;-64
2022/04/19 01:47:39;;;;;;;3.20;2.20;;;;;;;;;;6216786;23;20137;-64
2022/04/19 01:50:08;;;;;;;3.13;2.40;;;;;;;;;;6190688;23;20228;-64
2022/04/19 01:52:35;;;;;;;4.65;2.78;;;;;;;;;;6216917;23;20511;-64
2022/04/19 01:55:01;;;;;;;5.43;2.58;;;;;;;;;;6217296;23;20176;-64
2022/04/19 01:57:27;;;;;;;3.65;2.45;;;;;;;;;;6217014;23;20175;-64
2022/04/19 01:59:53;;;;;;;3.60;2.35;;;;;;;;;;6216583;23;20199;-65
2022/04/19 02:02:19;;;;;;;3.40;2.38;;;;;;;;;;6216963;23;20161;-64
2022/04/19 02:04:44;;;;;;;3.72;2.47;;;;;;;;;;6217081;23;20234;-64
2022/04/19 02:07:11;;;;;;;3.28;2.33;;;;;;;;;;6216988;23;20148;-64
2022/04/19 02:09:37;;;;;;;3.60;2.50;;;;;;;;;;6216706;23;20206;-64
2022/04/19 02:12:04;;;;;;;3.33;2.45;;;;;;;;;;6216943;23;20172;-64
2022/04/19 02:14:30;;;;;;;5.35;2.65;;;;;;;;;;6216646;23;20155;-64
2022/04/19 02:16:56;;;;;;;2.72;2.08;;;;;;;;;;6216225;23;20220;-64
2022/04/19 02:19:22;;;;;;;3.83;2.60;;;;;;;;;;6216440;23;20153;-64
2022/04/19 02:21:48;;;;;;;4.03;2.30;;;;;;;;;;6217272;23;20436;-64
2022/04/19 02:24:14;;;;;;;3.53;2.25;;;;;;;;;;6216186;23;20631;-64
2022/04/19 02:26:40;;;;;;;2.95;2.55;;;;;;;;;;6216610;23;20149;-64
2022/04/19 02:29:05;;;;;;;3.97;2.60;;;;;;;;;;6216380;23;20409;-64
2022/04/19 02:31:31;;;;;;;4.25;2.55;;;;;;;;;;6216294;23;20141;-64
2022/04/19 02:33:58;;;;;;;4.35;2.78;;;;;;;;;;6216533;23;20153;-64
2022/04/19 02:36:25;;;;;;;3.25;2.47;;;;;;;;;;6216391;23;20199;-64
2022/04/19 02:38:51;;;;;;;2.60;2.40;;;;;;;;;;6216349;23;20195;-64
2022/04/19 02:41:17;;;;;;;3.53;2.35;;;;;;;;;;6216219;23;20153;-65
2022/04/19 02:43:43;;;;;;;3.60;2.70;;;;;;;;;;6216087;23;20145;-65
2022/04/19 02:46:09;;;;;;;3.58;2.47;;;;;;;;;;6216364;23;20192;-65
2022/04/19 02:48:35;;;;;;;4.90;3.00;;;;;;;;;;6216590;23;20155;-64
2022/04/19 02:51:01;;;;;;;3.17;2.33;;;;;;;;;;6216456;23;20141;-64
2022/04/19 02:53:27;;;;;;;3.65;2.70;;;;;;;;;;6216672;23;20176;-64
2022/04/19 02:55:53;;;;;;;3.38;2.58;;;;;;;;;;6216004;23;20187;-65
2022/04/19 02:58:19;;;;;;;4.97;2.63;;;;;;;;;;6216251;23;20141;-64
2022/04/19 03:00:45;;;;;;;4.13;2.88;;;;;;;;;;6217622;23;20569;-64
2022/04/19 03:03:11;;;;;;;4.95;2.90;;;;;;;;;;6216539;23;20141;-65
2022/04/19 03:05:40;;;;;;;3.13;2.53;;;;;;;;;;6216023;23;20227;-65
2022/04/19 03:08:06;;;;;;;5.63;2.90;;;;;;;;;;6216396;23;20144;-63
2022/04/19 03:10:32;;;;;;;4.95;2.72;;;;;;;;;;6216040;23;20164;-65
2022/04/19 03:12:58;;;;;;;4.72;2.55;;;;;;;;;;6216603;23;20569;-65
2022/04/19 03:15:24;;;;;;;4.05;2.88;;;;;;;;;;6216177;23;20546;-65
2022/04/19 03:17:50;;;;;;;3.10;2.35;;;;;;;;;;6217510;23;20141;-65
2022/04/19 03:20:16;;;;;;;4.45;2.80;;;;;;;;;;6218476;23;20147;-65
2022/04/19 03:28:11;;;;;;;6.22;3.08;;;;;;;;;;6218200;23;20486;-65
2022/04/19 03:30:37;;;;;;;6.65;2.55;;;;;;;;;;6218440;23;20184;-64
2022/04/19 03:33:03;;;;;;;5.75;3.05;;;;;;;;;;6217990;23;20148;-64
2022/04/19 03:35:29;;;;;;;3.53;2.60;;;;;;;;;;6218114;23;20152;-64
2022/04/19 03:37:56;;;;;;;3.10;2.72;;;;;;;;;;6217973;23;20141;-65
2022/04/19 03:40:21;;;;;;;3.70;2.90;;;;;;;;;;6218402;23;20144;-65
2022/04/19 03:42:47;;;;;;;3.70;2.80;;;;;;;;;;6218074;23;20447;-65
2022/04/19 03:45:13;;;;;;;4.15;2.90;;;;;;;;;;6217835;23;20164;-64
2022/04/19 03:47:39;;;;;;;5.32;2.88;;;;;;;;;;6218395;23;20149;-64
2022/04/19 03:50:06;;;;;;;4.57;3.20;;;;;;;;;;6218820;23;20141;-64
2022/04/19 03:52:32;;;;;;;4.97;3.05;;;;;;;;;;6218894;23;20488;-64
2022/04/19 03:54:58;;;;;;;4.85;3.33;;;;;;;;;;6222874;23;20228;-64
2022/04/19 03:57:25;;;;;;;5.35;3.35;;;;;;;;;;6227705;23;20203;-64
2022/04/19 03:59:51;;;;;;;3.95;2.92;;;;;;;;;;6218085;23;20141;-64
2022/04/19 04:02:17;;;;;;;4.45;3.17;;;;;;;;;;6218018;23;20199;-64
2022/04/19 04:04:43;;;;;;;4.57;3.30;;;;;;;;;;6218018;23;20204;-64
2022/04/19 04:07:09;;;;;;;6.38;3.45;;;;;;;;;;6217350;23;20152;-63
2022/04/19 04:09:35;;;;;;;6.68;3.47;;;;;;;;;;6217646;23;20137;-64
2022/04/19 04:12:05;;;;;;;5.28;3.42;;;;;;;;;;6216156;23;20216;-64
2022/04/19 04:14:31;;;;;;;5.40;3.72;;;;;;;;;;6216644;23;20184;-63
2022/04/19 04:16:57;;;;;;;6.35;3.50;;;;;;;;;;6215898;23;20207;-63
2022/04/19 04:19:23;;;;;;;5.95;3.42;;;;;;;;;;6215876;23;20454;-63
2022/04/19 04:21:49;;;;;;;4.30;3.35;;;;;;;;;;6215991;23;20479;-64
2022/04/19 04:24:15;;;;;;;5.35;3.53;;;;;;;;;;6216119;23;20165;-64
2022/04/19 04:26:41;;;;;;;4.45;3.45;;;;;;;;;;6216185;23;20547;-64
2022/04/19 04:29:07;;;;;;;6.53;4.00;;;;;;;;;;6215596;23;20137;-63
2022/04/19 04:31:33;;;;;;;5.03;3.25;;;;;;;;;;6215800;23;20339;-63
2022/04/19 04:33:59;;;;;;;5.18;3.42;;;;;;;;;;6216146;23;20477;-62
2022/04/19 04:36:25;;;;;;;6.38;3.55;;;;;;;;;;6215929;23;20223;-63
2022/04/19 04:38:51;;;;;;;5.65;3.85;;;;;;;;;;6215747;23;20141;-65
2022/04/19 04:41:17;;;;;;;6.22;3.85;;;;;;;;;;6215696;23;20138;-65
2022/04/19 04:43:43;;;;;;;6.63;4.50;;;;;;;;;;6215686;23;20152;-65
2022/04/19 04:51:39;;;;;;;7.47;4.60;;;;;;;;;;6215720;23;20439;-64
2022/04/19 04:54:05;;;;;;;6.78;4.97;;;;;;;;;;6215852;23;20151;-64
2022/04/19 04:56:31;;;;;;;8.10;4.85;;;;;;;;;;6215453;23;20142;-64
2022/04/19 04:58:57;;;;;;;8.65;5.07;;;;;;;;;;6216358;23;20148;-63
2022/04/19 05:01:23;;;;;;;6.90;5.25;;;;;;;;;;6189405;23;20149;-64
2022/04/19 05:03:49;;;;;;;8.80;5.40;;;;;;;;;;6216349;23;20141;-64
2022/04/19 05:06:15;;;;;;;6.47;5.00;;;;;;;;;;6215627;23;20176;-63
2022/04/19 05:08:41;;;;;;;7.40;5.10;;;;;;;;;;6215995;23;20149;-65
2022/04/19 05:11:06;;;;;;;6.15;4.97;;;;;;;;;;6190387;23;69261;-65
2022/04/19 05:13:32;;;;;;;8.18;5.63;;;;;;;;;;6214610;23;20199;-65
2022/04/19 05:15:58;;;;;;;7.10;5.10;;;;;;;;;;6217404;23;20440;-65
2022/04/19 05:18:24;;;;;;;7.90;5.63;;;;;;;;;;6217159;23;20141;-65
2022/04/19 05:20:50;;;;;;;8.13;5.43;;;;;;;;;;6217081;23;20231;-65
2022/04/19 05:23:16;;;;;;;8.48;5.20;;;;;;;;;;6217256;23;20565;-65
2022/04/19 05:25:42;;;;;;;10.45;5.72;;;;;;;;;;6217189;23;20262;-65
2022/04/19 05:28:08;;;;;;;6.18;4.72;;;;;;;;;;6217274;23;20188;-64
2022/04/19 05:30:34;;;;;;;6.95;4.78;;;;;;;;;;6216992;23;20143;-64
2022/04/19 05:33:00;;;;;;;8.70;5.53;;;;;;;;;;6217204;23;20149;-64
2022/04/19 05:35:26;;;;;;;6.35;5.10;;;;;;;;;;6217242;23;20210;-65
2022/04/19 05:37:53;;;;;;;7.10;5.25;;;;;;;;;;6217120;23;20145;-64
2022/04/19 05:40:19;;;;;;;6.43;4.72;;;;;;;;;;6216974;23;20160;-65
2022/04/19 05:42:45;;;;;;;5.55;4.40;;;;;;;;;;6217439;23;20145;-64
2022/04/19 05:45:11;;;;;;;6.88;5.03;;;;;;;;;;6220246;23;20231;-66
2022/04/19 05:47:37;;;;;;;6.68;5.10;;;;;;;;;;6216708;23;20191;-64
2022/04/19 05:50:03;;;;;;;6.90;4.88;;;;;;;;;;6216950;23;20462;-64
2022/04/19 05:52:29;;;;;;;9.00;4.63;;;;;;;;;;6216665;23;20175;-64
2022/04/19 05:54:55;;;;;;;6.47;4.45;;;;;;;;;;6216579;23;20223;-64
2022/04/19 05:57:21;;;;;;;7.28;4.93;;;;;;;;;;6217030;23;20149;-64
2022/04/19 05:59:46;;;;;;;6.53;4.82;;;;;;;;;;6217367;23;20205;-64
2022/04/19 06:04:59;;;;;;;5.53;4.93;;;;;;;;;;6216779;23;20631;-63
2022/04/19 06:07:26;;;;;;;7.53;5.40;;;;;;;;;;6216735;23;20141;-63
2022/04/19 06:09:52;;;;;;;6.88;4.97;;;;;;;;;;6216895;23;20203;-63
2022/04/19 06:12:18;;;;;;;5.28;4.22;;;;;;;;;;6216497;23;20515;-64
2022/04/19 06:14:44;;;;;;;6.55;4.40;;;;;;;;;;6190529;23;20162;-63
2022/04/19 06:17:17;;;;;;;6.97;4.30;;;;;;;;;;6216647;23;20158;-64
2022/04/19 06:19:44;;;;;;;6.15;4.32;;;;;;;;;;6216410;23;20152;-64
2022/04/19 06:22:10;;;;;;;6.97;3.75;;;;;;;;;;6216682;23;20145;-64
2022/04/19 06:24:36;;;;;;;5.03;4.00;;;;;;;;;;6216494;23;20169;-64
2022/04/19 06:27:02;;;;;;;10.15;3.90;;;;;;;;;;6216706;23;20164;-64
2022/04/19 06:29:28;;;;;;;5.28;3.85;;;;;;;;;;6216723;23;20152;-64
2022/04/19 06:31:54;;;;;;;6.18;3.75;;;;;;;;;;6216720;23;20141;-64
2022/04/19 06:34:20;;;;;;;6.97;3.90;;;;;;;;;;6216862;23;20160;-64
2022/04/19 06:36:46;;;;;;;3.97;2.95;;;;;;;;;;6216455;23;20437;-64
2022/04/19 06:39:12;;;;;;;5.63;3.50;;;;;;;;;;6216393;23;20432;-64
2022/04/19 06:41:38;;;;;;;4.72;2.90;;;;;;;;;;6216420;23;20149;-64
2022/04/19 06:44:08;;;;;;;3.88;2.90;;;;;;;;;;6216181;23;20502;-64
2022/04/19 06:46:36;;;;;;;3.95;2.47;;;;;;;;;;6216193;23;20156;-64
2022/04/19 06:49:02;;;;;;;3.83;2.80;;;;;;;;;;6216343;23;20248;-64
2022/04/19 06:51:30;;;;;;;4.28;2.65;;;;;;;;;;6216133;23;20488;-64
2022/04/19 06:53:56;;;;;;;3.67;2.70;;;;;;;;;;6216552;23;20436;-64
2022/04/19 06:56:22;;;;;;;5.65;2.72;;;;;;;;;;6216752;23;20144;-64
2022/04/19 06:58:49;;;;;;;5.00;2.40;;;;;;;;;;6216320;23;20161;-64
2022/04/19 07:01:15;;;;;;;3.72;2.90;;;;;;;;;;6216519;23;20192;-63
2022/04/19 07:03:41;;;;;;;4.78;2.70;;;;;;;;;;6216890;23;20255;-63
2022/04/19 07:06:07;;;;;;;4.20;2.47;;;;;;;;;;6216124;23;20169;-65
2022/04/19 07:08:33;;;;;;;3.50;2.70;;;;;;;;;;6215890;23;20499;-65
2022/04/19 07:11:00;;;;;;;4.30;3.00;;;;;;;;;;6215404;23;20870;-63
2022/04/19 07:13:26;;;;;;;5.45;2.67;;;;;;;;;;6216119;23;20501;-63
2022/04/19 07:15:53;;;;;;;4.75;3.00;;;;;;;;;;6216302;23;20152;-63
2022/04/19 07:18:22;;;;;;;4.70;2.90;;;;;;;;;;6216148;23;20483;-64
2022/04/19 07:29:02;;;;;;;5.03;2.92;;;;;;;;;;6217384;23;20139;-65
2022/04/19 07:31:28;;;;;;;5.20;3.28;;;;;;;;;;6216564;23;20149;-64
2022/04/19 07:33:54;;;;;;;4.40;2.75;;;;;;;;;;6215838;23;20137;-65
2022/04/19 07:36:20;;;;;;;4.15;2.85;;;;;;;;;;6216638;23;20485;-65
2022/04/19 07:38:46;;;;;;;3.10;2.58;;;;;;;;;;6216441;23;20145;-63
2022/04/19 07:41:12;;;;;;;3.53;2.58;;;;;;;;;;6217615;23;20141;-64
2022/04/19 07:43:38;;;;;;;3.80;2.78;;;;;;;;;;6217551;23;20161;-64
2022/04/19 07:46:05;;;;;;;4.28;2.90;;;;;;;;;;6217253;23;20216;-64
2022/04/19 07:48:31;;;;;;;3.58;2.40;;;;;;;;;;6215559;23;20553;-64
2022/04/19 07:50:57;;;;;;;4.07;2.30;;;;;;;;;;6215588;23;20580;-64
2022/04/19 07:53:23;;;;;;;2.60;2.28;;;;;;;;;;6202336;23;20203;-65
2022/04/19 07:55:50;;;;;;;3.58;2.30;;;;;;;;;;6207941;23;20151;-65
2022/04/19 07:58:16;;;;;;;4.22;2.30;;;;;;;;;;6210181;23;20145;-64
2022/04/19 08:52:38;;;;;;;2.72;1.40;;;;;;;;;;6215361;23;20567;-63
2022/04/19 08:57:50;;;;;;;2.45;1.63;;;;;;;;;;6217642;23;20144;-64
2022/04/19 09:00:16;;;;;;;3.17;1.80;;;;;;;;;;6217798;23;20137;-64
2022/04/19 09:02:42;;;;;;;2.33;1.77;;;;;;;;;;6216586;23;20168;-64
2022/04/19 09:07:34;;;;;;;3.20;1.67;;;;;;;;;;6194742;22;20218;31
2022/04/19 09:12:26;;;;;;;3.13;2.10;;;;;;;;;;6189677;22;101797;31
2022/04/19 09:17:18;;;;;;;3.20;2.17;;;;;;;;;;6191140;22;20857;-63
2022/04/19 09:19:44;;;;;;;2.05;1.70;;;;;;;;;;6194627;22;20195;31
2022/04/19 09:22:10;;;;;;;3.05;1.85;;;;;;;;;;6183320;22;91122;31
2022/04/19 09:27:02;;;;;;;2.53;1.70;;;;;;;;;;6194153;22;21817;31
2022/04/19 09:29:27;;;;;;;2.05;1.58;;;;;;;;;;6194093;22;21344;31
2022/04/19 09:39:13;;;;;;;1.58;1.48;;;;;;;;;;6174734;22;20204;31
2022/04/19 09:51:23;;;;;;;2.28;1.60;;;;;;;;;;6197486;22;20192;31
2022/04/19 10:24:46;;;;;;;2.10;1.10;;;;;;;;;;5839471;22;20529;31
2022/04/19 10:41:53;;;;;;;2.25;1.50;;;;;;;;;;5751513;23;21156;31
2022/04/19 10:51:38;;;;;;;1.85;1.27;;;;;;;;;;5713761;23;77486;31
2022/04/19 11:14:20;;;;;;;2.20;1.75;;;;;;;;;;6196539;22;20198;31
2022/04/19 11:19:11;;;;;;;3.55;2.05;;;;;;;;;;6187767;22;20317;31
2022/04/19 11:48:27;;;;;;;3.42;2.50;;;;;;;;;;6185918;22;72051;31
2022/04/19 11:58:11;;;;;;;3.40;2.35;;;;;;;;;;6189728;22;20251;31
2022/04/19 12:22:33;;;;;;;2.58;2.05;;;;;;;;;;6164802;22;20195;31
2022/04/19 12:34:45;;;;;;;3.28;2.28;;;;;;;;;;6160585;22;84654;31
2022/04/19 13:16:53;;;;;;;5.68;2.50;;;;;;;;;;6204655;22;20206;31
2022/04/19 13:24:10;;;;;;;5.07;2.67;;;;;;;;;;6203894;22;20184;31
2022/04/19 13:46:09;;;;;;;2.45;1.95;;;;;;;;;;6199062;22;76348;31
2022/04/19 13:53:26;;;;;;;3.03;1.98;;;;;;;;;;6203030;22;20238;31
2022/04/19 13:55:52;;;;;;;3.20;1.90;;;;;;;;;;6204385;22;20191;31
2022/04/19 14:05:39;;;;;;;2.42;1.80;;;;;;;;;;6199226;22;71809;31
2022/04/19 14:27:36;;;;;;;3.10;1.95;;;;;;;;;;6196307;22;20192;31
2022/04/19 14:59:14;;;;;;;2.10;1.90;;;;;;;;;;6195253;22;20214;31
2022/04/19 15:11:27;;;;;;;2.80;2.05;;;;;;;;;;6195402;22;23068;31
2022/04/19 15:43:06;;;;;;;3.10;2.40;;;;;;;;;;6194867;22;20677;31
2022/04/19 16:24:06;;;;;;;1.77;1.50;;;;;;;;;;5750796;23;20207;31
2022/04/19 16:45:59;;;;;;;1.13;1.00;;;;;;;;;;5740800;23;73158;31
2022/04/19 16:48:26;;;;;;;2.60;1.40;;;;;;;;;;5755890;23;20197;31
2022/04/19 17:09:36;;;;;;;5.28;1.30;;;;;;;;;;5700539;23;20208;31
2022/04/19 17:16:56;;;;;;;3.58;1.65;;;;;;;;;;5701417;23;20209;31
2022/04/19 17:19:22;;;;;;;3.08;1.38;;;;;;;;;;5710431;23;70882;31
2022/04/19 17:26:42;;;;;;;2.63;1.60;;;;;;;;;;5723101;23;20302;31
2022/04/19 17:29:08;;;;;;;1.77;1.52;;;;;;;;;;5703722;23;20197;31
2022/04/19 17:41:17;;;;;;;2.67;1.85;;;;;;;;;;5698943;23;20212;31
2022/04/19 17:43:43;;;;;;;3.13;2.00;;;;;;;;;;5707079;23;74812;31
2022/04/19 18:44:36;;;;;;;3.40;2.65;;;;;;;;;;5703668;23;20233;31
2022/04/19 19:04:03;;;;;;;3.15;2.33;;;;;;;;;;5700462;23;20199;31
2022/04/19 19:08:54;;;;;;;3.92;2.40;;;;;;;;;;5709781;23;71566;31
2022/04/19 19:18:37;;;;;;;5.28;2.28;;;;;;;;;;5690998;23;20239;31
2022/04/19 19:23:29;;;;;;;3.22;2.25;;;;;;;;;;5702475;23;20200;31
2022/04/19 19:38:04;;;;;;;4.53;2.72;;;;;;;;;;5695598;23;20198;31
2022/04/19 19:40:30;;;;;;;5.85;3.05;;;;;;;;;;5710181;23;71527;31
2022/04/19 20:05:03;;;;;;;5.70;2.85;;;;;;;;;;5690811;23;76677;31
2022/04/19 20:24:28;;;;;;;3.83;2.70;;;;;;;;;;5688286;23;73720;31
2022/04/19 20:29:20;;;;;;;5.50;2.72;;;;;;;;;;5695749;23;20210;31
2022/04/19 20:41:31;;;;;;;4.32;2.80;;;;;;;;;;5699994;23;20210;31
2022/04/19 20:43:57;;;;;;;6.88;3.20;;;;;;;;;;5699907;23;75773;31
2022/04/19 21:02:36;;;;;;;7.03;2.90;;;;;;;;;;6135639;23;20196;31
2022/04/19 21:17:14;;;;;;;5.90;3.03;;;;;;;;;;6118458;23;72626;31
2022/04/19 21:36:45;;;;;;;6.57;3.15;;;;;;;;;;6116947;23;71639;31
2022/04/19 21:46:39;;;;;;;4.65;2.78;;;;;;;;;;6136001;23;20219;31
2022/04/19 21:51:43;;;;;;;6.18;2.75;;;;;;;;;;6110729;23;20350;31
2022/04/19 21:59:07;;;;;;;4.10;2.90;;;;;;;;;;6133729;23;20197;31
2022/04/19 22:16:10;;;;;;;5.82;2.92;;;;;;;;;;6098257;23;74429;31
2022/04/19 22:18:36;;;;;;;7.03;2.90;;;;;;;;;;6128015;23;20193;31
2022/04/19 22:42:57;;;;;;;3.58;2.55;;;;;;;;;;6110412;23;20193;31
2022/04/19 23:02:27;;;;;;;5.00;2.88;;;;;;;;;;6113467;23;20209;31
2022/04/19 23:29:13;;;;;;;4.72;2.58;;;;;;;;;;6121703;23;20185;31
2022/04/19 23:36:35;;;;;;;7.32;3.05;;;;;;;;;;6130846;23;20204;31
2022/04/19 23:46:17;;;;;;;7.13;3.17;;;;;;;;;;6101755;23;72402;31
2022/04/19 23:48:42;;;;;;;3.92;2.95;;;;;;;;;;6127312;23;20197;31
